createdAt,value
2024-02-05T00:04:45.741Z,92.10
2024-02-05T00:09:48.023Z,92.71
2024-02-05T00:14:45.569Z,92.71
2024-02-05T00:19:45.695Z,93.02
2024-02-05T00:24:45.656Z,93.43
2024-02-05T00:29:45.761Z,93.68
2024-02-05T00:34:45.873Z,94.43
2024-02-05T00:39:45.776Z,95.45
2024-02-05T00:44:45.846Z,96.16
2024-02-05T00:49:45.682Z,96.53
2024-02-05T00:54:47.830Z,97.27
2024-02-05T00:59:45.834Z,97.28
2024-02-05T01:04:46.320Z,98.00
2024-02-05T01:09:45.697Z,97.68
2024-02-05T01:14:46.014Z,98.03
2024-02-05T01:19:48.294Z,98.47
2024-02-05T01:24:47.838Z,97.55
2024-02-05T01:29:45.532Z,96.75
2024-02-05T01:34:45.678Z,96.25
2024-02-05T01:39:47.388Z,95.34
2024-02-05T01:44:45.531Z,94.51
2024-02-05T01:49:48.091Z,93.63
2024-02-05T01:54:47.835Z,93.89
2024-02-05T01:59:46.044Z,94.14
2024-02-05T02:04:46.264Z,93.89
2024-02-05T02:09:45.691Z,93.79
2024-02-05T02:14:45.523Z,93.52
2024-02-05T02:19:49.076Z,92.90
2024-02-05T02:24:46.115Z,93.31
2024-02-05T02:29:45.827Z,92.76
2024-02-05T02:34:48.459Z,92.51
2024-02-05T02:39:54.922Z,93.25
2024-02-05T02:44:46.649Z,93.86
2024-02-05T02:49:45.716Z,95.32
2024-02-05T02:54:45.742Z,96.13
2024-02-05T02:59:45.479Z,96.37
2024-02-05T03:04:45.601Z,96.61
2024-02-05T03:09:47.579Z,96.52
2024-02-05T03:14:45.418Z,96.65
2024-02-05T03:19:46.271Z,96.37
2024-02-05T03:24:46.561Z,96.44
2024-02-05T03:29:45.700Z,96.71
2024-02-05T03:34:45.558Z,96.29
2024-02-05T03:39:45.597Z,96.25
2024-02-05T03:44:45.431Z,96.25
2024-02-05T03:49:45.740Z,96.56
2024-02-05T03:54:47.962Z,96.83
2024-02-05T03:59:45.466Z,96.71
2024-02-05T04:04:45.524Z,96.97
2024-02-05T04:09:45.550Z,97.50
2024-02-05T04:14:45.520Z,97.20
2024-02-05T04:19:45.853Z,97.97
2024-02-05T04:24:45.745Z,99.50
2024-02-05T04:29:45.531Z,99.74
2024-02-05T04:34:45.666Z,99.88
2024-02-05T04:39:46.098Z,99.80
2024-02-05T04:44:45.391Z,100.00
2024-02-05T04:49:47.473Z,99.35
2024-02-05T04:54:47.083Z,99.62
2024-02-05T04:59:45.407Z,99.04
2024-02-05T05:04:45.476Z,99.34
2024-02-05T05:09:45.637Z,98.89
2024-02-05T05:14:45.339Z,98.13
2024-02-05T05:19:45.561Z,98.56
2024-02-05T05:24:47.068Z,98.46
2024-02-05T05:29:45.328Z,97.92
2024-02-05T05:34:45.424Z,97.97
2024-02-05T05:39:49.476Z,97.64
2024-02-05T05:44:45.347Z,97.33
2024-02-05T05:49:45.701Z,96.93
2024-02-05T05:54:45.527Z,97.17
2024-02-05T05:59:45.384Z,96.84
2024-02-05T06:04:45.410Z,96.14
2024-02-05T06:09:49.143Z,96.33
2024-02-05T06:14:45.999Z,96.54
2024-02-05T06:19:45.467Z,97.26
2024-02-05T06:24:47.157Z,97.95
2024-02-05T06:29:45.300Z,98.70
2024-02-05T06:34:45.512Z,98.49
2024-02-05T06:39:45.473Z,97.78
2024-02-05T06:44:45.700Z,96.98
2024-02-05T06:49:45.432Z,96.86
2024-02-05T06:54:45.782Z,97.23
2024-02-05T06:59:45.465Z,98.40
2024-02-05T07:04:45.374Z,98.43
2024-02-05T07:09:45.734Z,98.29
2024-02-05T07:14:45.349Z,98.76
2024-02-05T07:19:45.426Z,97.32
2024-02-05T07:24:46.173Z,95.59
2024-02-05T07:29:45.304Z,94.30
2024-02-05T07:34:45.570Z,93.37
2024-02-05T07:39:45.547Z,92.62
2024-02-05T07:44:45.287Z,91.83
2024-02-05T07:49:46.099Z,90.06
2024-02-05T07:54:47.339Z,88.75
2024-02-05T07:59:45.248Z,87.72
2024-02-05T08:04:47.015Z,85.87
2024-02-05T08:09:48.242Z,84.34
2024-02-05T08:14:45.363Z,84.33
2024-02-05T08:19:45.378Z,85.18
2024-02-05T08:24:45.416Z,84.77
2024-02-05T08:29:45.217Z,84.23
2024-02-05T08:34:45.447Z,83.39
2024-02-05T08:39:47.384Z,81.51
2024-02-05T08:44:45.892Z,80.89
2024-02-05T08:49:49.124Z,78.40
2024-02-05T08:54:47.483Z,77.04
2024-02-05T08:59:45.234Z,76.72
2024-02-05T09:04:45.903Z,73.09
2024-02-05T09:09:45.353Z,69.63
2024-02-05T09:14:45.162Z,68.88
2024-02-05T09:19:46.161Z,68.12
2024-02-05T09:24:45.460Z,68.24
2024-02-05T09:29:45.416Z,69.73
2024-02-05T09:34:45.840Z,69.39
2024-02-05T09:39:46.062Z,69.14
2024-02-05T09:44:49.362Z,70.36
2024-02-05T09:49:46.469Z,71.35
2024-02-05T09:54:46.575Z,72.25
2024-02-05T09:59:47.007Z,72.36
2024-02-05T10:04:48.770Z,71.99
2024-02-05T10:09:48.571Z,72.33
2024-02-05T10:14:45.404Z,71.45
2024-02-05T10:19:45.339Z,71.23
2024-02-05T10:24:46.083Z,72.15
2024-02-05T10:29:45.325Z,72.32
2024-02-05T10:34:50.469Z,71.77
2024-02-05T10:39:47.186Z,66.86
2024-02-05T10:44:45.138Z,63.16
2024-02-05T10:49:46.252Z,61.81
2024-02-05T10:54:50.560Z,63.96
2024-02-05T10:59:45.360Z,64.95
2024-02-05T11:04:46.927Z,66.58
2024-02-05T11:09:48.949Z,68.20
2024-02-05T11:14:46.998Z,68.41
2024-02-05T11:19:46.727Z,68.16
2024-02-05T11:24:46.330Z,67.92
2024-02-05T11:29:45.298Z,66.93
2024-02-05T11:34:45.215Z,66.96
2024-02-05T11:39:47.379Z,66.83
2024-02-05T11:44:46.609Z,66.23
2024-02-05T11:49:45.903Z,65.39
2024-02-05T11:54:45.250Z,65.75
2024-02-05T11:59:48.021Z,65.62
2024-02-05T12:04:46.792Z,65.63
2024-02-05T12:09:47.499Z,65.37
2024-02-05T12:14:45.032Z,65.09
2024-02-05T12:19:45.482Z,64.36
2024-02-05T12:24:45.278Z,63.64
2024-02-05T12:29:45.041Z,64.15
2024-02-05T12:34:46.691Z,63.50
2024-02-05T12:39:52.384Z,63.09
2024-02-05T12:49:45.980Z,62.26
2024-02-05T12:54:45.212Z,62.06
2024-02-05T12:59:45.384Z,62.00
2024-02-05T13:04:46.247Z,63.16
2024-02-05T13:09:48.148Z,64.33
2024-02-05T13:14:45.058Z,65.24
2024-02-05T13:19:45.400Z,65.41
2024-02-05T13:24:45.249Z,67.30
2024-02-05T13:29:45.004Z,69.04
2024-02-05T13:34:45.100Z,70.28
2024-02-05T13:39:45.273Z,70.63
2024-02-05T13:44:44.997Z,71.64
2024-02-05T13:49:45.066Z,72.59
2024-02-05T13:54:47.275Z,73.50
2024-02-05T13:59:44.995Z,73.93
2024-02-05T14:04:49.860Z,71.52
2024-02-05T14:09:45.322Z,72.91
2024-02-05T14:14:45.147Z,71.72
2024-02-05T14:19:47.287Z,73.44
2024-02-05T14:24:45.009Z,76.49
2024-02-05T14:29:45.301Z,79.34
2024-02-05T14:34:45.446Z,79.75
2024-02-05T14:39:47.059Z,80.97
2024-02-05T14:44:45.043Z,80.03
2024-02-05T14:49:46.596Z,79.73
2024-02-05T14:54:45.820Z,79.84
2024-02-05T14:59:44.908Z,80.76
2024-02-05T15:04:46.427Z,81.11
2024-02-05T15:09:45.896Z,80.40
2024-02-05T15:14:44.915Z,80.27
2024-02-05T15:19:45.199Z,80.50
2024-02-05T15:24:45.083Z,81.31
2024-02-05T15:29:44.972Z,81.77
2024-02-05T15:34:48.728Z,82.87
2024-02-05T15:39:45.049Z,82.97
2024-02-05T15:44:46.100Z,83.76
2024-02-05T15:49:45.069Z,84.46
2024-02-05T15:54:45.033Z,85.39
2024-02-05T15:59:47.446Z,85.95
2024-02-05T16:04:45.297Z,85.44
2024-02-05T16:09:44.924Z,85.65
2024-02-05T16:14:44.827Z,87.13
2024-02-05T16:19:47.175Z,87.83
2024-02-05T16:24:44.969Z,88.71
2024-02-05T16:29:45.285Z,89.34
2024-02-05T16:34:47.313Z,87.67
2024-02-05T16:39:45.592Z,88.41
2024-02-05T16:44:44.935Z,86.90
2024-02-05T16:49:46.585Z,86.71
2024-02-05T16:54:45.131Z,88.51
2024-02-05T16:59:47.267Z,89.33
2024-02-05T17:09:45.987Z,88.60
2024-02-05T17:14:44.930Z,90.64
2024-02-05T17:19:45.035Z,90.38
2024-02-05T17:24:45.010Z,90.42
2024-02-05T17:29:45.089Z,89.36
2024-02-05T17:34:45.122Z,90.09
2024-02-05T17:39:46.176Z,89.91
2024-02-05T17:44:44.858Z,91.65
2024-02-05T17:49:45.139Z,92.12
2024-02-05T17:54:44.805Z,92.58
2024-02-05T17:59:45.022Z,91.22
2024-02-05T18:04:45.980Z,91.23
2024-02-05T18:09:44.947Z,91.86
2024-02-05T18:14:44.797Z,92.43
2024-02-05T18:19:47.028Z,92.80
2024-02-05T18:24:49.965Z,93.48
2024-02-05T18:29:44.917Z,94.11
2024-02-05T18:34:46.829Z,94.36
2024-02-05T18:39:44.887Z,95.25
2024-02-05T18:44:44.781Z,95.42
2024-02-05T18:49:45.186Z,96.03
2024-02-05T18:54:44.728Z,96.32
2024-02-05T18:59:45.317Z,96.79
2024-02-05T19:04:46.457Z,97.81
2024-02-05T19:09:44.683Z,98.23
2024-02-05T19:14:44.991Z,99.31
2024-02-05T19:19:45.281Z,100.00
2024-02-05T19:24:44.735Z,100.00
2024-02-05T19:29:44.772Z,100.00
2024-02-05T19:34:47.024Z,100.00
2024-02-05T19:39:44.809Z,100.00
2024-02-05T19:44:44.730Z,100.00
2024-02-05T19:49:45.474Z,100.00
2024-02-05T19:54:44.662Z,100.00
2024-02-05T19:59:44.699Z,100.00
2024-02-05T20:04:44.907Z,100.00
2024-02-05T20:09:44.702Z,100.00
2024-02-05T20:14:44.911Z,100.00
2024-02-05T20:19:45.276Z,100.00
2024-02-05T20:24:44.662Z,100.00
2024-02-05T20:29:44.691Z,100.00
2024-02-05T20:34:44.825Z,100.00
2024-02-05T20:39:44.735Z,100.00
2024-02-05T20:49:45.475Z,100.00
2024-02-05T20:54:44.855Z,100.00
2024-02-05T20:59:44.615Z,100.00
2024-02-05T21:04:44.829Z,100.00
2024-02-05T21:09:44.682Z,100.00
2024-02-05T21:14:44.630Z,100.00
2024-02-05T21:19:44.928Z,100.00
2024-02-05T21:24:44.571Z,100.00
2024-02-05T21:29:44.705Z,100.00
2024-02-05T21:34:45.061Z,100.00
2024-02-05T21:39:44.648Z,100.00
2024-02-05T21:44:44.744Z,100.00
2024-02-05T21:49:44.914Z,100.00
2024-02-05T21:54:48.105Z,100.00
2024-02-05T21:59:44.740Z,100.00
2024-02-05T22:04:47.737Z,100.00
2024-02-05T22:09:47.694Z,100.00
2024-02-05T22:14:44.611Z,100.00
2024-02-05T22:19:44.905Z,100.00
2024-02-05T22:24:44.779Z,100.00
2024-02-05T22:29:44.604Z,100.00
2024-02-05T22:34:45.067Z,100.00
2024-02-05T22:39:44.532Z,100.00
2024-02-05T22:44:44.768Z,100.00
2024-02-05T22:49:44.855Z,100.00
2024-02-05T22:54:44.660Z,100.00
2024-02-05T22:59:44.831Z,100.00
2024-02-05T23:04:46.405Z,100.00
2024-02-05T23:09:44.627Z,100.00
2024-02-05T23:14:44.670Z,100.00
2024-02-05T23:19:44.706Z,100.00
2024-02-05T23:24:44.586Z,100.00
2024-02-05T23:29:44.522Z,100.00
2024-02-05T23:34:47.169Z,100.00
2024-02-05T23:39:44.581Z,100.00
2024-02-05T23:44:44.575Z,100.00
2024-02-05T23:49:46.413Z,100.00
2024-02-05T23:54:44.470Z,100.00
2024-02-05T23:59:44.540Z,100.00
